Time;durP1;ratioP1;P1;durP2;ratioP2;P2;SDS_P1;SDS_P2;PMS_P1;PMS_P2;Temp;Humidity;BMP_temperature;BMP_pressure;BME280_temperature;BME280_humidity;BME280_pressure;Samples;Min_cycle;Max_cycle;Signal;HPM_P1;HPM_P2
2021/12/21 00:00:40;;;;;;;3.40;2.30;;;;;;;0.96;64.86;100185.00;4984882;28;20255;-80
2021/12/21 00:03:07;;;;;;;2.43;2.07;;;;;;;0.92;65.26;100191.56;4985564;28;20311;-80
2021/12/21 00:05:36;;;;;;;3.77;2.33;;;;;;;0.92;65.43;100187.09;4976150;28;20243;-81
2021/12/21 00:08:09;;;;;;;2.53;2.33;;;;;;;0.84;65.16;100192.28;5002519;28;20623;-80
2021/12/21 00:10:36;;;;;;;2.23;2.03;;;;;;;1.08;65.24;100204.94;4968291;28;20635;-80
2021/12/21 00:13:08;;;;;;;2.57;1.90;;;;;;;0.81;65.79;100203.94;4985368;28;20474;-81
2021/12/21 00:25:59;;;;;;;3.40;2.20;;;;;;;0.68;65.97;100213.13;5002849;28;20262;-81
2021/12/21 00:28:31;;;;;;;3.30;2.37;;;;;;;0.76;65.95;100210.59;4969044;28;20251;-81
2021/12/21 00:30:58;;;;;;;3.17;2.37;;;;;;;0.73;65.28;100213.53;4984618;28;20231;-80
2021/12/21 00:33:25;;;;;;;3.07;2.50;;;;;;;0.71;65.46;100211.03;4984655;28;20589;-81
2021/12/21 00:35:52;;;;;;;4.80;2.60;;;;;;;0.67;65.92;100212.31;4984161;28;20230;-81
2021/12/21 00:38:20;;;;;;;2.57;2.27;;;;;;;0.60;66.07;100213.03;4985700;28;20272;-81
2021/12/21 00:40:46;;;;;;;4.07;2.20;;;;;;;0.66;65.92;100213.25;5002871;28;20231;-81
2021/12/21 00:43:13;;;;;;;3.50;2.50;;;;;;;0.49;66.29;100211.38;4984959;28;20218;-81
2021/12/21 00:45:40;;;;;;;2.80;2.30;;;;;;;0.50;66.33;100207.75;4984356;28;20219;-81
2021/12/21 00:48:07;;;;;;;3.70;2.37;;;;;;;0.54;66.33;100208.31;4984985;28;20258;-80
2021/12/21 00:50:33;;;;;;;5.23;2.20;;;;;;;0.61;65.98;100214.66;4985547;28;20295;-81
2021/12/21 00:53:00;;;;;;;3.47;2.30;;;;;;;0.50;65.82;100215.66;4984289;28;20712;-80
2021/12/21 00:55:27;;;;;;;3.17;2.30;;;;;;;0.46;66.58;100206.38;4985005;28;20318;-81
2021/12/21 00:57:54;;;;;;;3.70;2.40;;;;;;;0.47;66.09;100218.56;4985319;28;20234;-81
2021/12/21 01:00:22;;;;;;;3.80;2.80;;;;;;;0.41;66.21;100214.72;4984855;28;20223;-81
2021/12/21 01:02:50;;;;;;;2.57;2.23;;;;;;;0.45;65.74;100215.25;4968242;28;20247;-80
2021/12/21 01:05:35;;;;;;;3.17;2.20;;;;;;;0.46;65.79;100216.94;5001375;28;20239;-80
2021/12/21 01:08:08;;;;;;;3.43;2.37;;;;;;;0.28;66.71;100218.63;5001638;28;20233;-80
2021/12/21 01:13:14;;;;;;;3.13;2.20;;;;;;;0.40;65.81;100228.03;4983538;28;20711;-80
2021/12/21 01:16:04;;;;;;;2.77;2.10;;;;;;;0.34;66.15;100223.31;4985023;28;20254;-80
2021/12/21 01:18:41;;;;;;;2.90;2.27;;;;;;;0.24;66.19;100222.47;5000816;28;20258;-80
2021/12/21 01:21:17;;;;;;;3.20;2.30;;;;;;;0.26;66.73;100233.72;4969161;28;20230;-80
2021/12/21 01:27:03;;;;;;;3.07;2.23;;;;;;;0.26;66.19;100228.44;4984592;28;20227;-81
2021/12/21 01:32:15;;;;;;;4.47;2.27;;;;;;;0.15;66.34;100225.94;4940021;28;20231;-81
2021/12/21 01:35:11;;;;;;;3.20;2.30;;;;;;;-0.06;67.05;100220.81;4986362;28;20290;-81
2021/12/21 01:38:03;;;;;;;3.23;2.43;;;;;;;-0.04;67.91;100235.50;4985801;28;20227;-81
2021/12/21 01:51:26;;;;;;;2.83;2.40;;;;;;;-0.45;69.54;100230.44;4988737;28;20235;-81
2021/12/21 01:53:55;;;;;;;2.67;2.27;;;;;;;-0.45;69.30;100233.06;4986341;28;20230;-81
2021/12/21 01:56:24;;;;;;;2.33;2.10;;;;;;;-0.46;68.37;100224.34;4984237;28;20231;-81
2021/12/21 01:58:52;;;;;;;2.57;2.10;;;;;;;-0.52;69.41;100232.81;4986376;28;20607;-81
2021/12/21 02:01:20;;;;;;;2.53;2.10;;;;;;;-0.60;69.19;100219.44;5001585;28;20231;-81
2021/12/21 02:03:48;;;;;;;2.97;2.17;;;;;;;-0.70;69.64;100225.69;5001378;28;20318;-81
2021/12/21 02:06:20;;;;;;;3.13;2.30;;;;;;;-0.76;69.88;100226.19;4967982;28;20302;-81
2021/12/21 02:08:49;;;;;;;4.30;2.37;;;;;;;-0.92;70.27;100221.41;4985179;28;20600;-81
2021/12/21 02:11:18;;;;;;;3.93;2.50;;;;;;;-1.04;70.65;100225.09;4985164;28;20651;-81
2021/12/21 02:13:50;;;;;;;2.77;2.43;;;;;;;-1.00;70.45;100234.41;4986292;28;20254;-81
2021/12/21 02:16:30;;;;;;;3.07;2.40;;;;;;;-1.01;70.77;100232.72;4985395;28;20227;-81
2021/12/21 02:19:02;;;;;;;3.90;2.40;;;;;;;-1.09;70.73;100224.66;4987911;28;20231;-81
2021/12/21 02:21:40;;;;;;;3.17;2.40;;;;;;;-1.14;70.86;100232.94;4987734;28;20231;-81
2021/12/21 02:24:17;;;;;;;2.43;2.20;;;;;;;-1.20;71.21;100224.72;4972760;28;20230;-81
2021/12/21 02:27:24;;;;;;;2.97;2.30;;;;;;;-1.21;71.45;100225.72;5003353;28;20234;-81
2021/12/21 02:29:54;;;;;;;2.77;2.30;;;;;;;-1.18;70.84;100223.66;4991416;28;20628;-81
2021/12/21 02:32:22;;;;;;;4.43;2.37;;;;;;;-1.24;70.61;100212.81;4987326;28;20262;-81
2021/12/21 02:34:50;;;;;;;3.67;2.40;;;;;;;-1.14;70.45;100224.22;4987688;28;20219;-81
2021/12/21 02:37:17;;;;;;;2.80;2.20;;;;;;;-1.19;70.50;100224.63;4986537;28;20239;-81
2021/12/21 02:39:48;;;;;;;2.43;2.20;;;;;;;-1.21;70.38;100220.47;4988167;28;20558;-80
2021/12/21 02:42:15;;;;;;;2.17;1.97;;;;;;;-1.19;70.26;100224.63;5002779;28;20255;-81
2021/12/21 02:44:50;;;;;;;2.73;2.03;;;;;;;-1.19;69.39;100224.63;4986549;28;20306;-81
2021/12/21 02:47:17;;;;;;;2.87;2.13;;;;;;;-1.08;69.25;100226.34;4969699;28;20239;-81
2021/12/21 02:49:43;;;;;;;2.63;2.37;;;;;;;-1.10;69.91;100234.34;4993018;23;20331;-81
2021/12/21 02:52:12;;;;;;;3.10;2.00;;;;;;;-1.10;69.69;100217.72;4985808;28;20242;-81
2021/12/21 02:54:39;;;;;;;4.97;2.30;;;;;;;-1.01;69.62;100235.34;4984665;28;20310;-81
2021/12/21 02:57:06;;;;;;;2.87;2.17;;;;;;;-0.88;68.73;100238.59;4970625;28;20231;-81
2021/12/21 02:59:36;;;;;;;2.70;2.10;;;;;;;-0.79;68.72;100235.16;4987398;28;20232;-81
2021/12/21 03:02:06;;;;;;;2.50;2.00;;;;;;;-0.70;67.52;100228.31;4985844;28;20223;-80
2021/12/21 03:04:33;;;;;;;3.10;2.10;;;;;;;-0.56;67.48;100227.94;5001831;28;20251;-81
2021/12/21 03:09:55;;;;;;;3.03;1.93;;;;;;;-0.57;67.37;100229.72;4971359;28;20317;-81
2021/12/21 03:14:51;;;;;;;2.33;1.80;;;;;;;-0.39;67.17;100232.53;4987026;28;20235;-81
2021/12/21 03:17:21;;;;;;;2.97;2.13;;;;;;;-0.24;67.12;100241.72;4986109;28;20227;-80
2021/12/21 03:19:48;;;;;;;2.70;2.00;;;;;;;-0.16;66.65;100241.03;4970324;28;20231;-81
2021/12/21 03:22:15;;;;;;;2.80;1.90;;;;;;;-0.19;67.20;100241.31;5000639;28;20535;-81
2021/12/21 03:24:43;;;;;;;2.97;1.87;;;;;;;-0.17;66.71;100229.66;4986490;28;20662;-81
2021/12/21 03:27:10;;;;;;;3.63;2.43;;;;;;;-0.12;66.62;100224.81;5002430;28;20255;-81
2021/12/21 03:29:37;;;;;;;2.23;1.83;;;;;;;0.05;65.38;100222.50;4985338;28;20228;-81
2021/12/21 03:32:06;;;;;;;2.80;2.17;;;;;;;0.02;65.40;100233.28;4985168;28;20299;-81
2021/12/21 03:34:35;;;;;;;2.10;2.00;;;;;;;0.11;65.56;100238.56;4986717;28;20256;-81
2021/12/21 03:37:11;;;;;;;2.43;1.80;;;;;;;0.11;65.20;100237.72;4986122;28;20227;-81
2021/12/21 03:39:42;;;;;;;2.53;1.70;;;;;;;0.12;64.69;100234.97;4986070;28;20293;-81
2021/12/21 03:42:14;;;;;;;2.10;1.67;;;;;;;0.08;66.04;100236.22;4985161;28;20303;-81
2021/12/21 03:44:41;;;;;;;2.03;1.70;;;;;;;0.04;65.15;100234.84;5002427;28;20235;-81
2021/12/21 03:47:11;;;;;;;3.03;2.00;;;;;;;-0.04;65.55;100232.03;4984459;28;20227;-81
2021/12/21 03:49:53;;;;;;;2.93;2.00;;;;;;;-0.07;65.80;100240.22;4986713;28;20231;-81
2021/12/21 03:52:22;;;;;;;2.20;2.00;;;;;;;-0.09;65.34;100248.25;4970686;28;20326;-81
2021/12/21 03:54:53;;;;;;;2.33;1.90;;;;;;;-0.11;65.64;100241.47;4969407;28;20696;-81
2021/12/21 03:57:20;;;;;;;3.20;1.97;;;;;;;-0.15;65.81;100246.19;4985359;28;20212;-81
2021/12/21 03:59:48;;;;;;;2.57;2.10;;;;;;;-0.20;65.91;100242.28;4986392;28;20235;-81
2021/12/21 04:02:17;;;;;;;3.07;2.00;;;;;;;-0.18;65.77;100243.81;4969181;28;20287;-81
2021/12/21 04:04:45;;;;;;;2.10;1.73;;;;;;;-0.13;65.56;100246.88;4968575;28;20302;-81
2021/12/21 04:07:13;;;;;;;2.20;1.73;;;;;;;-0.22;65.23;100245.03;4985319;28;20532;-81
2021/12/21 04:09:40;;;;;;;2.00;1.80;;;;;;;-0.19;65.88;100242.16;5002145;28;20705;-81
2021/12/21 04:12:09;;;;;;;2.10;1.80;;;;;;;-0.41;65.79;100247.63;4969400;28;20206;-81
2021/12/21 04:14:37;;;;;;;2.43;2.10;;;;;;;-0.56;66.06;100239.28;4984999;28;20231;-81
2021/12/21 04:17:20;;;;;;;3.67;2.27;;;;;;;-0.66;66.95;100246.31;4985692;28;20231;-81
2021/12/21 04:19:52;;;;;;;2.93;2.20;;;;;;;-0.84;67.20;100250.53;5001812;28;20255;-81
2021/12/21 04:22:23;;;;;;;2.53;2.07;;;;;;;-0.95;67.93;100245.38;4968216;28;20235;-81
2021/12/21 04:24:53;;;;;;;3.30;1.97;;;;;;;-0.99;68.02;100247.44;4985612;28;20227;-81
2021/12/21 04:27:20;;;;;;;2.90;1.90;;;;;;;-1.04;68.60;100251.41;4984381;28;20586;-81
2021/12/21 04:29:47;;;;;;;2.37;1.83;;;;;;;-1.09;68.14;100248.34;4985294;28;20235;-81
2021/12/21 04:32:15;;;;;;;2.70;2.00;;;;;;;-1.18;68.01;100247.31;4985258;28;20211;-81
2021/12/21 04:34:43;;;;;;;2.83;2.13;;;;;;;-1.19;68.33;100253.53;4967971;28;20656;-81
2021/12/21 04:37:14;;;;;;;2.80;2.00;;;;;;;-1.28;68.61;100250.84;4969648;28;20254;-81
2021/12/21 04:39:48;;;;;;;3.17;1.80;;;;;;;-1.23;68.67;100254.75;4985583;28;20294;-81
2021/12/21 04:42:15;;;;;;;2.37;2.10;;;;;;;-1.17;68.77;100258.69;4969480;28;20242;-81
2021/12/21 04:44:45;;;;;;;2.47;1.97;;;;;;;-1.22;68.95;100252.97;4966719;28;20226;-81
2021/12/21 04:47:12;;;;;;;3.57;2.23;;;;;;;-1.15;69.13;100243.59;4984969;28;20231;-81
2021/12/21 04:49:39;;;;;;;2.63;1.93;;;;;;;-1.14;69.10;100240.84;4968495;28;20236;-81
2021/12/21 04:52:07;;;;;;;4.07;2.30;;;;;;;-1.13;68.52;100260.09;4983878;28;20319;-81
2021/12/21 04:54:33;;;;;;;2.50;1.70;;;;;;;-1.19;68.66;100242.19;4983200;28;20223;-81
2021/12/21 04:57:03;;;;;;;3.53;2.07;;;;;;;-1.23;68.50;100248.66;4984287;28;20588;-81
2021/12/21 04:59:30;;;;;;;5.63;2.20;;;;;;;-1.19;68.96;100261.44;4984725;28;20233;-81
2021/12/21 05:01:57;;;;;;;2.47;1.80;;;;;;;-1.19;68.61;100256.16;4968357;28;20223;-81
2021/12/21 05:04:24;;;;;;;2.77;2.20;;;;;;;-1.14;68.86;100263.66;4983170;28;20266;-81
2021/12/21 05:07:07;;;;;;;3.27;2.00;;;;;;;-1.24;69.19;100255.72;4986011;28;20231;-81
2021/12/21 05:09:42;;;;;;;2.20;2.00;;;;;;;-1.21;69.43;100265.97;4984823;28;20299;-81
2021/12/21 05:12:12;;;;;;;2.80;2.10;;;;;;;-1.24;69.20;100257.50;4983112;28;20256;-81
2021/12/21 05:14:40;;;;;;;2.73;1.93;;;;;;;-1.19;69.24;100260.59;4966985;28;20270;-82
2021/12/21 05:17:06;;;;;;;2.27;2.07;;;;;;;-1.20;69.38;100262.38;4969172;28;20297;-81
2021/12/21 05:19:35;;;;;;;2.13;1.80;;;;;;;-1.22;68.88;100271.38;4972556;28;20231;-81
2021/12/21 05:22:02;;;;;;;2.40;1.93;;;;;;;-1.40;69.64;100258.00;4988040;28;20243;-80
2021/12/21 05:24:29;;;;;;;4.47;2.20;;;;;;;-1.34;69.56;100274.06;4972601;28;20579;-81
2021/12/21 05:26:57;;;;;;;2.33;2.10;;;;;;;-1.44;68.83;100274.94;4972715;28;20518;-81
2021/12/21 05:29:24;;;;;;;4.23;2.40;;;;;;;-1.50;69.25;100257.06;5005256;28;20245;-82
2021/12/21 05:31:51;;;;;;;3.23;2.00;;;;;;;-1.53;69.67;100268.66;4989499;28;20223;-81
2021/12/21 05:34:25;;;;;;;2.27;2.07;;;;;;;-1.52;69.85;100272.97;4989984;28;20227;-81
2021/12/21 05:36:51;;;;;;;2.47;2.07;;;;;;;-1.54;70.31;100282.75;5003715;28;20258;-82
2021/12/21 05:39:23;;;;;;;2.93;1.97;;;;;;;-1.53;70.06;100278.34;4970751;28;20238;-81
2021/12/21 05:41:54;;;;;;;3.20;2.10;;;;;;;-1.58;70.02;100273.47;4989887;28;20225;-81
2021/12/21 05:44:23;;;;;;;3.53;2.30;;;;;;;-1.66;70.26;100252.25;4988596;28;20226;-81
2021/12/21 05:46:54;;;;;;;3.43;2.43;;;;;;;-1.55;70.73;100280.28;4970631;28;20226;-81
2021/12/21 05:49:21;;;;;;;4.10;2.23;;;;;;;-1.57;70.30;100285.66;4970848;28;20254;-81
2021/12/21 05:51:49;;;;;;;2.73;2.40;;;;;;;-1.69;70.72;100281.41;4971301;28;20642;-82
2021/12/21 05:54:21;;;;;;;2.67;2.37;;;;;;;-1.71;70.19;100285.94;4987829;28;20253;-81
2021/12/21 05:56:48;;;;;;;3.73;2.57;;;;;;;-1.67;69.98;100276.00;4971554;28;20232;-81
2021/12/21 05:59:16;;;;;;;3.07;2.37;;;;;;;-1.68;70.71;100298.00;4988759;28;20234;-81
2021/12/21 06:01:44;;;;;;;2.90;2.30;;;;;;;-1.71;70.57;100277.22;5005200;28;20285;-80
2021/12/21 06:04:11;;;;;;;3.47;2.33;;;;;;;-1.77;70.38;100284.66;5005451;28;20311;-82
2021/12/21 06:06:38;;;;;;;3.80;2.40;;;;;;;-1.83;70.27;100284.34;5005127;28;20286;-81
2021/12/21 06:09:08;;;;;;;4.33;2.70;;;;;;;-1.86;70.25;100297.69;4954441;28;20325;-81
2021/12/21 06:11:42;;;;;;;4.57;2.53;;;;;;;-1.94;70.58;100290.44;4988422;28;20235;-81
2021/12/21 06:27:21;;;;;;;6.37;5.60;;;;;;;-2.38;71.28;100303.69;4984874;28;20236;-81
2021/12/21 06:29:50;;;;;;;4.63;4.20;;;;;;;-2.48;71.96;100294.84;4968957;28;20240;-81
2021/12/21 06:32:18;;;;;;;5.93;3.73;;;;;;;-2.50;71.68;100297.59;5003433;28;20238;-82
2021/12/21 06:34:48;;;;;;;5.70;3.50;;;;;;;-2.52;71.92;100307.34;4967123;28;20595;-81
2021/12/21 06:37:16;;;;;;;4.77;3.00;;;;;;;-2.55;72.16;100304.97;4986138;28;20297;-81
2021/12/21 06:39:43;;;;;;;4.53;2.90;;;;;;;-2.58;72.50;100310.47;4968490;28;20227;-81
2021/12/21 06:42:10;;;;;;;3.93;2.83;;;;;;;-2.59;72.92;100310.59;4951131;28;20639;-81
2021/12/21 06:44:42;;;;;;;4.90;3.07;;;;;;;-2.70;72.84;100300.91;4966447;28;20220;-81
2021/12/21 06:53:00;;;;;;;4.63;3.00;;;;;;;-2.77;73.65;100307.59;4979122;28;20240;-81
2021/12/21 06:55:27;;;;;;;7.37;3.80;;;;;;;-2.71;73.48;100320.25;4983523;28;20327;-82
2021/12/21 06:57:54;;;;;;;5.90;3.10;;;;;;;-2.78;73.42;100301.53;4985125;28;20228;-81
2021/12/21 07:00:22;;;;;;;4.70;3.10;;;;;;;-2.68;73.56;100320.84;4952448;28;20307;-82
2021/12/21 07:02:49;;;;;;;5.70;2.90;;;;;;;-2.75;73.60;100317.00;4981914;28;20628;-81
2021/12/21 07:05:16;;;;;;;3.67;3.00;;;;;;;-2.75;73.38;100321.41;4948558;28;20319;-81
2021/12/21 07:07:43;;;;;;;3.50;3.00;;;;;;;-2.72;73.21;100319.41;4965221;28;20263;-82
2021/12/21 07:10:21;;;;;;;3.20;2.80;;;;;;;-2.67;73.01;100324.31;4965984;28;20231;-82
2021/12/21 07:20:34;;;;;;;5.60;3.80;;;;;;;-2.51;72.31;100331.81;4967251;28;20223;-81
2021/12/21 07:23:02;;;;;;;5.80;3.40;;;;;;;-2.48;72.37;100329.81;4979768;28;20262;-82
2021/12/21 07:25:30;;;;;;;4.13;3.30;;;;;;;-2.46;72.50;100334.91;4966568;28;20295;-81
2021/12/21 07:27:57;;;;;;;5.77;3.43;;;;;;;-2.34;72.47;100331.34;4967270;28;20242;-82
2021/12/21 07:30:24;;;;;;;4.13;3.10;;;;;;;-2.30;72.49;100317.84;4966084;28;20326;-80
2021/12/21 07:32:55;;;;;;;5.33;3.00;;;;;;;-2.13;71.84;100329.63;4966623;28;20232;-82
2021/12/21 07:35:22;;;;;;;5.03;3.07;;;;;;;-2.03;71.96;100332.38;4980912;28;20240;-81
2021/12/21 07:37:50;;;;;;;5.13;3.53;;;;;;;-2.07;71.77;100313.41;4966777;28;20231;-81
2021/12/21 07:40:17;;;;;;;7.40;3.77;;;;;;;-1.95;71.74;100317.66;5000852;28;20230;-81
2021/12/21 07:42:44;;;;;;;4.03;3.43;;;;;;;-1.87;72.04;100317.88;4963743;28;20640;-81
2021/12/21 07:45:11;;;;;;;4.20;3.23;;;;;;;-1.76;71.22;100319.63;4971586;28;20323;-81
2021/12/21 07:47:38;;;;;;;3.57;3.27;;;;;;;-1.74;70.84;100303.75;4975773;28;20301;-81
2021/12/21 07:50:09;;;;;;;4.37;3.50;;;;;;;-1.66;70.95;100304.78;4981149;28;20582;-81
2021/12/21 07:52:36;;;;;;;4.67;3.40;;;;;;;-1.60;71.12;100298.22;4965554;28;20224;-81
2021/12/21 07:55:04;;;;;;;6.97;3.47;;;;;;;-1.43;70.88;100322.13;4983698;28;20227;-81
2021/12/21 07:57:31;;;;;;;5.50;3.40;;;;;;;-1.33;70.85;100316.97;4968655;28;20302;-81
2021/12/21 08:00:03;;;;;;;3.37;3.00;;;;;;;-1.27;70.92;100310.38;4985616;28;20223;-81
2021/12/21 08:02:41;;;;;;;5.17;3.20;;;;;;;-1.22;70.89;100308.19;5005182;28;20223;-81
2021/12/21 08:05:11;;;;;;;5.43;3.07;;;;;;;-1.08;70.19;100306.06;5002530;28;20231;-81
2021/12/21 08:07:48;;;;;;;8.27;3.37;;;;;;;-1.07;69.71;100305.09;4985214;28;20211;-81
2021/12/21 08:10:20;;;;;;;4.47;3.00;;;;;;;-1.00;69.04;100305.41;4999027;28;20306;-81
2021/12/21 08:12:49;;;;;;;5.00;3.40;;;;;;;-0.88;68.89;100307.84;4985152;28;20227;-82
2021/12/21 08:15:19;;;;;;;6.50;3.77;;;;;;;-0.75;68.59;100312.06;4983003;28;20258;-81
2021/12/21 08:17:46;;;;;;;9.57;3.83;;;;;;;-0.77;68.18;100306.94;4980665;28;20291;-81
2021/12/21 08:20:13;;;;;;;4.83;3.60;;;;;;;-0.70;68.01;100318.59;4964725;28;20521;-81
2021/12/21 08:22:40;;;;;;;4.23;3.50;;;;;;;-0.61;68.23;100317.00;4965231;28;20227;-81
2021/12/21 08:25:09;;;;;;;4.73;3.60;;;;;;;-0.53;67.98;100314.53;4967600;28;20306;-82
2021/12/21 08:27:38;;;;;;;4.30;3.20;;;;;;;-0.38;67.26;100330.78;4935502;28;20242;-81
2021/12/21 08:30:08;;;;;;;4.77;3.30;;;;;;;-0.29;67.43;100322.09;4980344;28;20259;-82
2021/12/21 08:32:34;;;;;;;3.43;2.73;;;;;;;-0.23;66.83;100321.53;4947945;28;20530;-81
2021/12/21 08:35:02;;;;;;;4.83;3.40;;;;;;;-0.17;66.99;100328.91;4965054;28;20228;-82
2021/12/21 08:37:30;;;;;;;6.53;3.03;;;;;;;-0.10;66.35;100323.00;4981373;28;20240;-81
2021/12/21 08:39:59;;;;;;;4.07;3.00;;;;;;;0.01;66.48;100311.50;4965412;28;20299;-81
2021/12/21 08:42:27;;;;;;;4.10;3.67;;;;;;;0.14;65.82;100327.06;4961941;28;20704;-81
2021/12/21 08:44:54;;;;;;;6.17;3.13;;;;;;;0.22;65.71;100328.06;4947805;28;20242;-82
2021/12/21 08:47:22;;;;;;;3.83;2.70;;;;;;;0.28;64.39;100324.03;4962891;28;20224;-82
2021/12/21 08:49:51;;;;;;;3.37;2.67;;;;;;;0.38;63.16;100325.69;4948495;28;20239;-81
2021/12/21 08:52:18;;;;;;;4.17;2.73;;;;;;;0.50;63.03;100326.41;4961955;28;20263;-81
2021/12/21 08:54:45;;;;;;;4.53;2.40;;;;;;;0.57;62.47;100335.41;4963049;28;20232;-81
2021/12/21 08:57:13;;;;;;;2.60;2.40;;;;;;;0.72;62.37;100344.59;4964216;28;20236;-81
2021/12/21 08:59:40;;;;;;;2.60;2.40;;;;;;;0.80;62.12;100334.16;4965194;28;20462;-81
2021/12/21 09:02:08;;;;;;;4.77;2.90;;;;;;;0.87;61.44;100340.56;4963084;28;20258;-81
2021/12/21 09:04:36;;;;;;;3.63;2.37;;;;;;;1.06;60.59;100336.22;4980103;28;20219;-81
2021/12/21 09:07:04;;;;;;;4.03;2.37;;;;;;;1.13;60.79;100339.94;4964564;28;20713;-81
2021/12/21 09:09:31;;;;;;;3.67;2.50;;;;;;;1.20;60.12;100341.91;4965549;28;20279;-81
2021/12/21 09:11:58;;;;;;;3.03;2.60;;;;;;;1.31;59.73;100338.22;4964484;28;20255;-81
2021/12/21 09:14:32;;;;;;;3.73;2.67;;;;;;;1.38;59.67;100334.06;4964992;28;20223;-81
2021/12/21 09:17:01;;;;;;;5.50;2.57;;;;;;;1.39;59.42;100324.34;4965692;28;20283;-80
2021/12/21 09:19:32;;;;;;;3.70;2.50;;;;;;;1.51;59.89;100333.72;4966847;28;20231;-81
2021/12/21 09:22:00;;;;;;;3.17;2.40;;;;;;;1.49;59.19;100323.34;4982687;28;20240;-81
2021/12/21 09:24:28;;;;;;;3.20;2.40;;;;;;;1.56;59.63;100327.03;4964967;28;20227;-81
2021/12/21 09:26:56;;;;;;;2.77;2.50;;;;;;;1.63;59.18;100312.25;4967804;28;20249;-81
2021/12/21 09:29:23;;;;;;;3.73;2.53;;;;;;;1.70;58.96;100320.44;4997066;28;20262;-81
2021/12/21 09:31:51;;;;;;;5.93;3.33;;;;;;;1.83;59.96;100322.75;4990836;28;20224;-81
2021/12/21 09:34:18;;;;;;;3.40;3.00;;;;;;;1.83;60.41;100309.53;4981471;28;20582;-81
2021/12/21 09:36:45;;;;;;;3.00;2.70;;;;;;;1.83;60.86;100307.72;4980807;28;20231;-81
2021/12/21 09:39:11;;;;;;;3.67;3.37;;;;;;;1.91;60.56;100301.72;4976101;28;20215;-81
2021/12/21 09:41:40;;;;;;;3.10;2.80;;;;;;;1.99;59.97;100304.44;4983996;28;20639;-81
2021/12/21 09:44:12;;;;;;;4.00;2.93;;;;;;;2.04;59.12;100308.31;4980726;28;20578;-81
2021/12/21 09:46:40;;;;;;;9.77;6.87;;;;;;;2.08;58.71;100301.75;4981902;28;20224;-81
2021/12/21 09:49:08;;;;;;;7.00;4.10;;;;;;;2.17;58.43;100292.91;4981272;28;20258;-81
2021/12/21 09:51:34;;;;;;;7.10;4.30;;;;;;;2.22;58.17;100285.38;4980359;28;20237;-81
2021/12/21 09:54:02;;;;;;;6.10;3.50;;;;;;;2.30;57.67;100284.59;4981018;28;20223;-81
2021/12/21 09:56:29;;;;;;;3.57;2.50;;;;;;;2.36;56.05;100283.19;4982647;28;20234;-81
2021/12/21 09:58:56;;;;;;;3.30;2.63;;;;;;;2.45;55.94;100293.69;4981760;28;20251;-81
2021/12/21 10:01:23;;;;;;;2.80;2.50;;;;;;;2.52;54.96;100288.63;4981522;28;20228;-81
2021/12/21 10:03:49;;;;;;;3.43;3.13;;;;;;;2.55;54.98;100281.22;4984177;28;20598;-81
2021/12/21 10:06:17;;;;;;;3.43;2.80;;;;;;;2.64;54.19;100285.59;4983509;28;20215;-81
2021/12/21 10:08:43;;;;;;;3.07;2.57;;;;;;;2.69;54.51;100281.66;5000880;28;20243;-81
2021/12/21 10:11:22;;;;;;;2.90;2.43;;;;;;;2.78;54.07;100278.91;4984814;28;20628;-81
2021/12/21 10:13:52;;;;;;;3.87;2.20;;;;;;;2.79;54.03;100266.53;4985470;28;20227;-81
2021/12/21 10:16:20;;;;;;;2.93;2.47;;;;;;;2.95;53.62;100279.84;5000468;28;20255;-81
2021/12/21 10:18:47;;;;;;;4.63;2.53;;;;;;;2.98;53.40;100264.50;4984426;28;20261;-81
2021/12/21 10:21:16;;;;;;;4.60;2.90;;;;;;;3.02;52.41;100263.22;4968751;28;20294;-81
2021/12/21 10:23:48;;;;;;;3.07;2.20;;;;;;;3.22;51.97;100263.81;4969398;28;20258;-81
2021/12/21 10:26:25;;;;;;;2.47;2.27;;;;;;;3.34;51.63;100274.97;4983931;28;20223;-81
2021/12/21 10:29:02;;;;;;;3.50;2.80;;;;;;;3.41;51.79;100271.53;4984786;28;20238;-81
2021/12/21 10:31:32;;;;;;;2.50;2.10;;;;;;;3.45;50.28;100272.88;4984876;28;20219;-81
2021/12/21 10:34:01;;;;;;;3.17;2.07;;;;;;;3.52;50.44;100265.97;5002609;28;20238;-81
2021/12/21 10:36:31;;;;;;;5.43;3.20;;;;;;;3.56;50.15;100258.53;4984681;28;20281;-81
2021/12/21 10:39:02;;;;;;;6.03;2.80;;;;;;;3.57;49.61;100269.94;4984054;28;20543;-81
2021/12/21 10:41:41;;;;;;;1.70;1.60;;;;;;;3.47;47.70;100255.00;4964677;28;20235;-81
2021/12/21 10:44:13;;;;;;;1.90;1.70;;;;;;;3.53;47.90;100258.84;4980456;28;20525;-81
2021/12/21 10:46:48;;;;;;;2.53;1.90;;;;;;;3.52;46.67;100246.59;4966096;28;20238;-81
2021/12/21 10:49:31;;;;;;;1.90;1.80;;;;;;;3.45;47.10;100248.22;4978324;28;20232;-81
2021/12/21 10:52:09;;;;;;;2.57;1.50;;;;;;;3.38;46.23;100239.22;4949526;28;20248;-82
2021/12/21 10:54:46;;;;;;;2.13;1.60;;;;;;;3.45;46.40;100240.28;4964936;28;20266;-81
2021/12/21 10:57:17;;;;;;;3.73;1.90;;;;;;;3.46;46.27;100244.56;4964185;28;20228;-81
2021/12/21 10:59:49;;;;;;;3.30;2.00;;;;;;;3.60;46.07;100241.31;4965402;28;20236;-81
2021/12/21 11:02:26;;;;;;;2.43;1.80;;;;;;;3.58;46.61;100234.53;4964920;28;20635;-81
2021/12/21 11:04:59;;;;;;;2.97;1.97;;;;;;;3.64;47.47;100244.50;4964549;28;20228;-81
2021/12/21 11:07:33;;;;;;;2.20;2.00;;;;;;;3.66;47.34;100232.72;4964502;28;20644;-81
2021/12/21 11:10:24;;;;;;;2.67;2.03;;;;;;;3.66;46.89;100227.44;4951333;28;20565;-81
2021/12/21 11:13:20;;;;;;;2.13;1.73;;;;;;;3.76;47.04;100233.44;4976670;28;20247;-81
2021/12/21 11:16:07;;;;;;;2.30;2.00;;;;;;;3.72;47.44;100221.50;4991108;28;20231;-81
2021/12/21 11:18:41;;;;;;;4.37;2.23;;;;;;;3.86;47.19;100223.53;4969194;23;20221;-81
2021/12/21 11:21:10;;;;;;;2.73;2.30;;;;;;;3.56;48.06;100210.81;4930460;29;20221;-81
2021/12/21 11:23:38;;;;;;;2.43;1.90;;;;;;;3.49;47.13;100228.38;4929059;29;20308;-81
2021/12/21 11:26:07;;;;;;;2.63;2.10;;;;;;;3.64;47.99;100226.75;4931681;29;20221;-81
2021/12/21 11:28:36;;;;;;;2.50;2.30;;;;;;;3.75;47.90;100213.22;4949082;29;20572;-82
2021/12/21 11:31:06;;;;;;;3.50;2.77;;;;;;;3.74;49.18;100226.59;4948434;29;20316;-81
2021/12/21 11:33:44;;;;;;;3.83;2.70;;;;;;;3.71;49.25;100227.78;4947576;29;20230;-81
2021/12/21 11:39:03;;;;;;;3.60;2.40;;;;;;;3.94;47.30;100204.13;4976160;28;20220;-81
2021/12/21 11:41:32;;;;;;;3.47;2.80;;;;;;;3.82;47.70;100198.34;4981348;28;20248;-81
2021/12/21 11:44:14;;;;;;;3.50;2.50;;;;;;;3.79;46.96;100200.44;4945183;28;20255;-82
2021/12/21 11:46:58;;;;;;;4.07;2.40;;;;;;;3.76;47.58;100201.63;4973690;23;20228;-81
2021/12/21 11:49:33;;;;;;;4.00;2.50;;;;;;;3.64;48.01;100199.44;4985001;28;20222;-81
2021/12/21 11:52:16;;;;;;;3.03;2.30;;;;;;;3.70;48.69;100198.78;4983782;28;20231;-82
2021/12/21 11:55:08;;;;;;;3.17;2.30;;;;;;;3.77;47.81;100189.19;4980870;23;20752;-81
2021/12/21 11:57:48;;;;;;;2.73;2.37;;;;;;;3.84;48.08;100198.16;5002937;28;20239;-81
2021/12/21 12:00:36;;;;;;;3.07;2.50;;;;;;;3.82;47.35;100182.44;5022935;28;20230;-81
2021/12/21 12:03:10;;;;;;;3.60;2.53;;;;;;;3.87;47.44;100181.94;5021340;28;20214;-81
2021/12/21 12:05:41;;;;;;;2.60;2.40;;;;;;;3.68;48.66;100177.75;5007417;28;20658;-81
2021/12/21 12:08:11;;;;;;;2.80;2.60;;;;;;;3.72;48.16;100172.94;5011639;28;20230;-81
2021/12/21 12:10:54;;;;;;;3.17;2.70;;;;;;;3.67;47.78;100180.56;5027538;23;20236;-81
2021/12/21 12:13:47;;;;;;;3.63;2.50;;;;;;;3.62;48.61;100180.22;5023247;28;20699;-81
2021/12/21 12:17:05;;;;;;;2.70;2.40;;;;;;;3.57;49.02;100171.91;5021670;28;20246;-81
2021/12/21 12:19:43;;;;;;;2.40;2.20;;;;;;;3.53;48.28;100166.13;5029923;28;20211;-81
2021/12/21 12:22:15;;;;;;;2.30;2.10;;;;;;;3.57;47.10;100178.03;5028565;28;20590;-81
2021/12/21 12:25:07;;;;;;;2.60;2.40;;;;;;;3.50;46.70;100169.91;5024941;28;20250;-81
2021/12/21 12:27:43;;;;;;;2.77;2.30;;;;;;;3.50;47.32;100169.91;5027588;28;20228;-81
2021/12/21 12:30:16;;;;;;;2.50;2.30;;;;;;;3.41;48.08;100160.28;5008321;28;20222;-81
2021/12/21 12:32:47;;;;;;;2.80;2.20;;;;;;;3.52;48.03;100164.44;5021428;28;20278;-81
2021/12/21 12:35:17;;;;;;;2.77;2.10;;;;;;;3.78;45.87;100167.00;4993596;28;20338;-81
2021/12/21 12:38:06;;;;;;;2.33;1.90;;;;;;;3.63;46.02;100166.81;4985427;28;20227;-81
2021/12/21 12:40:39;;;;;;;2.90;2.37;;;;;;;3.65;45.17;100154.22;5007235;28;20222;-81
2021/12/21 12:43:27;;;;;;;2.80;2.20;;;;;;;3.69;45.08;100154.72;5004036;28;20231;-81
2021/12/21 12:46:03;;;;;;;4.40;2.33;;;;;;;3.83;44.93;100156.72;5021777;28;20227;-81
2021/12/21 12:48:47;;;;;;;3.20;2.20;;;;;;;3.85;45.33;100152.94;5004424;28;20226;-81
2021/12/21 12:51:33;;;;;;;2.30;2.10;;;;;;;3.95;45.17;100166.88;4985520;28;20235;-81